Aviation Digital Data Service (ADDS)

Output produced by METARs form (1809 UTC 26 September 2021)
found at http://www.aviationweather.gov/metar/data/
 
METAR text: RJSN 261200Z 12006KT 9999 FEW020 SCT/// 19/14 Q1019
Conditions at: RJSN (NIIGATA (CIV/JAS, JP) observed 1200 UTC 26 September 2021
Temperature: 19.0°C (66°F)
Dewpoint: 14.0°C (57°F) [RH = 73%]
Pressure (altimeter): 30.09 inches Hg (1019.0 mb)
Winds: from the ESE (120 degrees) at 7 MPH (6 knots; 3.1 m/s)
Visibility: 6 or more miles (10+ km)
Ceiling: at least 12,000 feet AGL
Clouds: few clouds at 2000 feet AGL
Weather: no significant weather observed at this time

METAR text: RJSN 261100Z 18006KT 9999 FEW020 SCT100 BKN170 19/14 Q1019
Conditions at: RJSN (NIIGATA (CIV/JAS, JP) observed 1100 UTC 26 September 2021
Temperature: 19.0°C (66°F)
Dewpoint: 14.0°C (57°F) [RH = 73%]
Pressure (altimeter): 30.09 inches Hg (1019.0 mb)
Winds: from the S (180 degrees) at 7 MPH (6 knots; 3.1 m/s)
Visibility: 6 or more miles (10+ km)
Ceiling: 17000 feet AGL
Clouds: few clouds at 2000 feet AGL
scattered clouds at 10000 feet AGL
broken clouds at 17000 feet AGL
Weather: no significant weather observed at this time

METAR text: RJSN 261000Z 19003KT 9999 FEW020 SCT100 BKN150 20/14 Q1019
Conditions at: RJSN (NIIGATA (CIV/JAS, JP) observed 1000 UTC 26 September 2021
Temperature: 20.0°C (68°F)
Dewpoint: 14.0°C (57°F) [RH = 68%]
Pressure (altimeter): 30.09 inches Hg (1019.0 mb)
Winds: from the S (190 degrees) at 3 MPH (3 knots; 1.5 m/s)
Visibility: 6 or more miles (10+ km)
Ceiling: 15000 feet AGL
Clouds: few clouds at 2000 feet AGL
scattered clouds at 10000 feet AGL
broken clouds at 15000 feet AGL
Weather: no significant weather observed at this time

METAR text: RJSN 260900Z 16001KT 9999 FEW020 SCT100 BKN150 21/15 Q1018
Conditions at: RJSN (NIIGATA (CIV/JAS, JP) observed 0900 UTC 26 September 2021
Temperature: 21.0°C (70°F)
Dewpoint: 15.0°C (59°F) [RH = 69%]
Pressure (altimeter): 30.06 inches Hg (1018.0 mb)
Winds: from the SSE (160 degrees) at 1 MPH (1 knots; 0.5 m/s)
Visibility: 6 or more miles (10+ km)
Ceiling: 15000 feet AGL
Clouds: few clouds at 2000 feet AGL
scattered clouds at 10000 feet AGL
broken clouds at 15000 feet AGL
Weather: no significant weather observed at this time

METAR text: RJSN 260800Z 13004KT 9999 FEW020 SCT100 BKN150 21/15 Q1018
Conditions at: RJSN (NIIGATA (CIV/JAS, JP) observed 0800 UTC 26 September 2021
Temperature: 21.0°C (70°F)
Dewpoint: 15.0°C (59°F) [RH = 69%]
Pressure (altimeter): 30.06 inches Hg (1018.0 mb)
Winds: from the SE (130 degrees) at 5 MPH (4 knots; 2.1 m/s)
Visibility: 6 or more miles (10+ km)
Ceiling: 15000 feet AGL
Clouds: few clouds at 2000 feet AGL
scattered clouds at 10000 feet AGL
broken clouds at 15000 feet AGL
Weather: no significant weather observed at this time

METAR text: RJSN 260700Z 15007KT 9999 FEW020 SCT040 BKN120 22/15 Q1018
Conditions at: RJSN (NIIGATA (CIV/JAS, JP) observed 0700 UTC 26 September 2021
Temperature: 22.0°C (72°F)
Dewpoint: 15.0°C (59°F) [RH = 65%]
Pressure (altimeter): 30.06 inches Hg (1018.0 mb)
Winds: from the SSE (150 degrees) at 8 MPH (7 knots; 3.6 m/s)
Visibility: 6 or more miles (10+ km)
Ceiling: 12000 feet AGL
Clouds: few clouds at 2000 feet AGL
scattered clouds at 4000 feet AGL
broken clouds at 12000 feet AGL
Weather: no significant weather observed at this time

METAR text: RJSN 260600Z 15010KT 9999 FEW020 SCT040 BKN100 22/15 Q1019
Conditions at: RJSN (NIIGATA (CIV/JAS, JP) observed 0600 UTC 26 September 2021
Temperature: 22.0°C (72°F)
Dewpoint: 15.0°C (59°F) [RH = 65%]
Pressure (altimeter): 30.09 inches Hg (1019.0 mb)
Winds: from the SSE (150 degrees) at 12 MPH (10 knots; 5.1 m/s)
Visibility: 6 or more miles (10+ km)
Ceiling: 10000 feet AGL
Clouds: few clouds at 2000 feet AGL
scattered clouds at 4000 feet AGL
broken clouds at 10000 feet AGL
Weather: no significant weather observed at this time

METAR text: RJSN 260500Z 16011KT 9999 FEW020 SCT030 BKN080 22/15 Q1019
Conditions at: RJSN (NIIGATA (CIV/JAS, JP) observed 0500 UTC 26 September 2021
Temperature: 22.0°C (72°F)
Dewpoint: 15.0°C (59°F) [RH = 65%]
Pressure (altimeter): 30.09 inches Hg (1019.0 mb)
Winds: from the SSE (160 degrees) at 13 MPH (11 knots; 5.7 m/s)
Visibility: 6 or more miles (10+ km)
Ceiling: 8000 feet AGL
Clouds: few clouds at 2000 feet AGL
scattered clouds at 3000 feet AGL
broken clouds at 8000 feet AGL
Weather: no significant weather observed at this time

METAR text: RJSN 260403Z 16014KT 9999 FEW020CB SCT030 BKN080 23/15 Q1019 RMK 1CB020 3CU030 5AC080 A3010 CB 20KM NW MOV NE
Conditions at: RJSN (NIIGATA (CIV/JAS, JP) observed 0403 UTC 26 September 2021
Temperature: 23.0°C (73°F)
Dewpoint: 15.0°C (59°F) [RH = 61%]
Pressure (altimeter): 30.09 inches Hg (1019.0 mb)
Winds: from the SSE (160 degrees) at 16 MPH (14 knots; 7.2 m/s)
Visibility: 6 or more miles (10+ km)
Ceiling: 8000 feet AGL
Clouds: few clouds at 2000 feet AGL
scattered clouds at 3000 feet AGL
broken clouds at 8000 feet AGL
Weather: no significant weather observed at this time

METAR text: RJSN 260400Z 16013KT 9999 TS FEW020CB SCT030 BKN080 23/15 Q1019
Conditions at: RJSN (NIIGATA (CIV/JAS, JP) observed 0400 UTC 26 September 2021
Temperature: 23.0°C (73°F)
Dewpoint: 15.0°C (59°F) [RH = 61%]
Pressure (altimeter): 30.09 inches Hg (1019.0 mb)
Winds: from the SSE (160 degrees) at 15 MPH (13 knots; 6.7 m/s)
Visibility: 6 or more miles (10+ km)
Ceiling: 8000 feet AGL
Clouds: few clouds at 2000 feet AGL
scattered clouds at 3000 feet AGL
broken clouds at 8000 feet AGL
Weather: TS  (thunderstorm)

METAR text: RJSN 260300Z 16012KT 9999 FEW020 SCT040 BKN090 23/15 Q1019
Conditions at: RJSN (NIIGATA (CIV/JAS, JP) observed 0300 UTC 26 September 2021
Temperature: 23.0°C (73°F)
Dewpoint: 15.0°C (59°F) [RH = 61%]
Pressure (altimeter): 30.09 inches Hg (1019.0 mb)
Winds: from the SSE (160 degrees) at 14 MPH (12 knots; 6.2 m/s)
Visibility: 6 or more miles (10+ km)
Ceiling: 9000 feet AGL
Clouds: few clouds at 2000 feet AGL
scattered clouds at 4000 feet AGL
broken clouds at 9000 feet AGL
Weather: no significant weather observed at this time

METAR text: RJSN 260200Z 17013KT 9999 FEW030 SCT100 BKN/// 23/15 Q1020
Conditions at: RJSN (NIIGATA (CIV/JAS, JP) observed 0200 UTC 26 September 2021
Temperature: 23.0°C (73°F)
Dewpoint: 15.0°C (59°F) [RH = 61%]
Pressure (altimeter): 30.12 inches Hg (1020.0 mb)
Winds: from the S (170 degrees) at 15 MPH (13 knots; 6.7 m/s)
Visibility: 6 or more miles (10+ km)
Ceiling: at least 12,000 feet AGL
Clouds: few clouds at 3000 feet AGL
scattered clouds at 10000 feet AGL
Weather: no significant weather observed at this time

METAR text: RJSN 260100Z 13007KT 100V160 9999 FEW030 SCT100 BKN/// 24/16 Q1020
Conditions at: RJSN (NIIGATA (CIV/JAS, JP) observed 0100 UTC 26 September 2021
Temperature: 24.0°C (75°F)
Dewpoint: 16.0°C (61°F) [RH = 61%]
Pressure (altimeter): 30.12 inches Hg (1020.0 mb)
Winds: from the SE (130 degrees) at 8 MPH (7 knots; 3.6 m/s)
Visibility: 6 or more miles (10+ km)
Ceiling: at least 12,000 feet AGL
Clouds: few clouds at 3000 feet AGL
scattered clouds at 10000 feet AGL
Weather: no significant weather observed at this time

METAR text: RJSN 260000Z 14005KT 110V180 9999 FEW030 SCT100 BKN/// 21/15 Q1020
Conditions at: RJSN (NIIGATA (CIV/JAS, JP) observed 0000 UTC 26 September 2021
Temperature: 21.0°C (70°F)
Dewpoint: 15.0°C (59°F) [RH = 69%]
Pressure (altimeter): 30.12 inches Hg (1020.0 mb)
Winds: from the SE (140 degrees) at 6 MPH (5 knots; 2.6 m/s)
Visibility: 6 or more miles (10+ km)
Ceiling: at least 12,000 feet AGL
Clouds: few clouds at 3000 feet AGL
scattered clouds at 10000 feet AGL
Weather: no significant weather observed at this time

METAR text: RJSN 252300Z 15006KT 9999 FEW030 SCT100 BKN/// 20/15 Q1020
Conditions at: RJSN (NIIGATA (CIV/JAS, JP) observed 2300 UTC 25 September 2021
Temperature: 20.0°C (68°F)
Dewpoint: 15.0°C (59°F) [RH = 73%]
Pressure (altimeter): 30.12 inches Hg (1020.0 mb)
Winds: from the SSE (150 degrees) at 7 MPH (6 knots; 3.1 m/s)
Visibility: 6 or more miles (10+ km)
Ceiling: at least 12,000 feet AGL
Clouds: few clouds at 3000 feet AGL
scattered clouds at 10000 feet AGL
Weather: no significant weather observed at this time

METAR text: RJSN 252200Z 12003KT 090V160 9999 FEW030 SCT100 BKN/// 20/15 Q1021
Conditions at: RJSN (NIIGATA (CIV/JAS, JP) observed 2200 UTC 25 September 2021
Temperature: 20.0°C (68°F)
Dewpoint: 15.0°C (59°F) [RH = 73%]
Pressure (altimeter): 30.15 inches Hg (1021.0 mb)
Winds: from the ESE (120 degrees) at 3 MPH (3 knots; 1.5 m/s)
Visibility: 6 or more miles (10+ km)
Ceiling: at least 12,000 feet AGL
Clouds: few clouds at 3000 feet AGL
scattered clouds at 10000 feet AGL
Weather: no significant weather observed at this time

METAR text: RJSN 252110Z VRB02KT 9999 FEW030 SCT100 BKN/// 19/15 Q1021 RMK 1CU030 3AC100 A3016
Conditions at: RJSN (NIIGATA (CIV/JAS, JP) observed 2110 UTC 25 September 2021
Temperature: 19.0°C (66°F)
Dewpoint: 15.0°C (59°F) [RH = 78%]
Pressure (altimeter): 30.15 inches Hg (1021.0 mb)
Winds: variable direction winds at 2 MPH (2 knots; 1.0 m/s)
Visibility: 6 or more miles (10+ km)
Ceiling: at least 12,000 feet AGL
Clouds: few clouds at 3000 feet AGL
scattered clouds at 10000 feet AGL
Weather: no significant weather observed at this time

METAR text: RJSN 251200Z 13003KT CAVOK 21/18 Q1022
Conditions at: RJSN (NIIGATA (CIV/JAS, JP) observed 1200 UTC 25 September 2021
Temperature: 21.0°C (70°F)
Dewpoint: 18.0°C (64°F) [RH = 83%]
Pressure (altimeter): 30.18 inches Hg (1022.0 mb)
Winds: from the SE (130 degrees) at 3 MPH (3 knots; 1.5 m/s)
Visibility: 6 or more miles (10+ km)
Ceiling: ceiling and visibility are OK
Clouds: unknown
Weather: no significant weather observed at this time

METAR text: RJSN 251100Z VRB01KT CAVOK 22/17 Q1022
Conditions at: RJSN (NIIGATA (CIV/JAS, JP) observed 1100 UTC 25 September 2021
Temperature: 22.0°C (72°F)
Dewpoint: 17.0°C (63°F) [RH = 73%]
Pressure (altimeter): 30.18 inches Hg (1022.0 mb)
Winds: variable direction winds at 1 MPH (1 knots; 0.5 m/s)
Visibility: 6 or more miles (10+ km)
Ceiling: ceiling and visibility are OK
Clouds: unknown
Weather: no significant weather observed at this time

METAR text: RJSN 251000Z 06004KT CAVOK 23/19 Q1022
Conditions at: RJSN (NIIGATA (CIV/JAS, JP) observed 1000 UTC 25 September 2021
Temperature: 23.0°C (73°F)
Dewpoint: 19.0°C (66°F) [RH = 78%]
Pressure (altimeter): 30.18 inches Hg (1022.0 mb)
Winds: from the ENE (60 degrees) at 5 MPH (4 knots; 2.1 m/s)
Visibility: 6 or more miles (10+ km)
Ceiling: ceiling and visibility are OK
Clouds: unknown
Weather: no significant weather observed at this time

METAR text: RJSN 250900Z 03009KT 9999 FEW030 23/18 Q1022
Conditions at: RJSN (NIIGATA (CIV/JAS, JP) observed 0900 UTC 25 September 2021
Temperature: 23.0°C (73°F)
Dewpoint: 18.0°C (64°F) [RH = 73%]
Pressure (altimeter): 30.18 inches Hg (1022.0 mb)
Winds: from the NNE (30 degrees) at 10 MPH (9 knots; 4.6 m/s)
Visibility: 6 or more miles (10+ km)
Ceiling: at least 12,000 feet AGL
Clouds: few clouds at 3000 feet AGL
Weather: no significant weather observed at this time

METAR text: RJSN 250800Z 02011KT 9999 FEW030 23/18 Q1022
Conditions at: RJSN (NIIGATA (CIV/JAS, JP) observed 0800 UTC 25 September 2021
Temperature: 23.0°C (73°F)
Dewpoint: 18.0°C (64°F) [RH = 73%]
Pressure (altimeter): 30.18 inches Hg (1022.0 mb)
Winds: from the NNE (20 degrees) at 13 MPH (11 knots; 5.7 m/s)
Visibility: 6 or more miles (10+ km)
Ceiling: at least 12,000 feet AGL
Clouds: few clouds at 3000 feet AGL
Weather: no significant weather observed at this time

METAR text: RJSN 250700Z 02012KT 9999 FEW040 23/17 Q1022
Conditions at: RJSN (NIIGATA (CIV/JAS, JP) observed 0700 UTC 25 September 2021
Temperature: 23.0°C (73°F)
Dewpoint: 17.0°C (63°F) [RH = 69%]
Pressure (altimeter): 30.18 inches Hg (1022.0 mb)
Winds: from the NNE (20 degrees) at 14 MPH (12 knots; 6.2 m/s)
Visibility: 6 or more miles (10+ km)
Ceiling: at least 12,000 feet AGL
Clouds: few clouds at 4000 feet AGL
Weather: no significant weather observed at this time

Forecast for: RJSN (NIIGATA (CIV/JAS, JP)
Text: TAF RJSN 261705Z 2618/2800 14006KT 9999 FEW020
Forecast period: 1800 UTC 26 September 2021 to 0000 UTC 28 September 2021
Forecast type: FROM: standard forecast or significant change
Winds: from the SE (140 degrees) at 7 MPH (6 knots; 3.1 m/s)
Visibility: 6 or more miles (10+ km)
Ceiling: at least 12,000 feet AGL
Clouds: few clouds at 2000 feet AGL
Weather: no significant weather forecast for this period